Airfield :
LOGIN :

Register | Disclaimer

   EN    FR    IT 

 










Legend :    VFR   Marginal VFR   IFR   Intensive IFR   Very Intensive IFR
Visi :
Ceiling :
>= 8 km
>= 3000ft
5 to 8 km
1000 to 3000 ft
1500m to 5 km
500 to 1000 ft
800 to 1500m
200 to 500 ft
< 800m
< 200 ft
Symbols :   Thunderstorms  Fog  Heavy snow  Heavy precipitations  Wind > 20 kt
SIGMETs :     Misc.  Thunderstorms  Icing  Turbulence  Mountain Waves  Volcanic Ashes







- Airport Elevation : 512 ft
- IATA code : URO
- Download approach charts


LFOP - Rouen Vallée de Seine

CURRENT METAR :
  • 171100Z AUTO 30006KT 260V350 9999 FEW036 SCT045 20/11 Q1022 NOSIG

EXPIRED METARs :
  • 171030Z AUTO 31007KT 270V350 9999 SCT035 20/11 Q1021 NOSIG
  • 171000Z AUTO 28008KT 240V330 9999 BKN028 19/12 Q1021 NOSIG
  • 170930Z AUTO 28007KT 260V330 9999 SCT025 19/13 Q1021 NOSIG
  • 170900Z AUTO 30006KT 270V340 9999 ////// 18/12 Q1021

TAF TAF LFOP
Valid from the 17 at 06:00 until the 18 at 06:00 UTC


170500Z 1706/1806 30008KT 9999 BKN020
BECMG 1801/1804 0800 FG OVC003
ATIS : +33 2 35 80 80 34
Met : +33 2 32 86 52 80
No reported NOTAMs for that airfield.
1 SIGMET reported for the Paris FIR (LFFF) :
 
Severe turbulence
LFFF SIGMET 6 VALID 171000/171400 LFPW
LFFF PARIS FIR/UIR SEV TURB FCST WI N4700 E00215 - N4715 E00200 - N4715 E00030 - N5030 E00315 - N5000 E00500 - N4700 E00215 FL250/350 MOV E 20KT INTSF=



MET'MAP, your aeronautical weather chart ! - Copyright ORBIFLY December 2007 - Disclaimer

ORBIFLY MET'MAP TEAM :

Programming & Development : Alexandra Zaïnal
Concept & Development : Baudouin d'Aumeries
Co-Development & Prog : Marc-Olivier Méhu
Technical & hardware support : Manuel Goepfert

Contact : metmap@orbifly.com




SOURCES & CREDITS :

   NOAA